Aérodrome :
LOGIN :

S'inscrire | Disclaimer

   EN    FR    IT 

 










Légende :    VFR   VFR Marginal   IFR   IFR Intensif   IFR Très Intensif
Visi : 
Plafond : 
>= 8 km
>= 3000ft
5 à 8 km
1000 à 3000 ft
1500m à 5 km
500 à 1000 ft
800 à 1500m
200 à 500 ft
< 800m
< 200 ft
Symboles :   Orages  Brouillard  Fortes neiges  Fortes précipitations  Vent > 20 kt
SIGMETs :   Divers  Orages  Givrage  Turbulence  Onde Orograph.  Cendres Volcan.






- Altitude de l'aérodrome : 463 ft
- Code IATA : SZY
- AEROPORT FERMÉ.


EPSY - Szczytno

DERNIER METAR :
  • 270200Z 23006KT 9999 BKN012 00/M01 Q0995

METARs EXPIRÉS :
  • 270130Z 24006KT 9999 BKN014 00/M01 Q0995
  • 270100Z 23006KT 9999 SCT017 00/M01 Q0994
  • 270030Z 23006KT 9999 FEW019 00/M01 Q0994
  • 270000Z 24007KT CAVOK 00/M01 Q0994
  • 262330Z 25007KT CAVOK 01/M01 Q0994
  • 262300Z 26007KT CAVOK 01/M01 Q0993

TAF TAF EPSY
Valide du 27 à 00h jusqu'au 27 à 09h UTC


262330Z 2700/2709 25005KT CAVOK
PROB40
TEMPO 2700/2709 6000 -SHRA BKN013 BKN020CB
PROB30
TEMPO 2700/2706 4000 SHRASN BKN008 BKN015CB



MET'MAP, la Météo Aéronautique d'un coup d'oeil ! - Copyright ORBIFLY Décembre 2007 - Disclaimer

ORBIFLY MET'MAP TEAM :

Programmation & Développement : Alexandra Zaïnal
Sur une idée originale de : Baudouin d'Aumeries
Assistance à la programmation : Marc-Olivier Méhu
Soutien technique & logistique : Manuel Goepfert

Contact : metmap@orbifly.com




SOURCES & CREDITS :

   NOAA